createdAt,value
2023-02-03T00:01:09.633Z,44.93
2023-02-03T00:11:19.031Z,45.26
2023-02-03T00:21:29.025Z,45.32
2023-02-03T00:31:38.532Z,45.33
2023-02-03T00:41:48.423Z,45.54
2023-02-03T00:51:58.059Z,45.55
2023-02-03T01:02:06.864Z,45.72
2023-02-03T01:12:16.500Z,45.77
2023-02-03T01:22:26.300Z,45.74
2023-02-03T01:32:35.961Z,45.88
2023-02-03T01:42:45.138Z,45.99
2023-02-03T01:52:54.472Z,46.19
2023-02-03T02:03:03.736Z,46.25
2023-02-03T02:13:12.575Z,46.37
2023-02-03T02:23:21.608Z,46.41
2023-02-03T02:33:31.930Z,46.43
2023-02-03T02:43:41.105Z,46.58
2023-02-03T02:53:50.169Z,46.66
2023-02-03T03:04:00.740Z,46.64
2023-02-03T03:14:09.818Z,46.69
2023-02-03T03:24:19.712Z,46.71
2023-02-03T03:34:28.972Z,46.74
2023-02-03T03:44:38.695Z,46.76
2023-02-03T03:54:47.718Z,46.86
2023-02-03T04:04:57.394Z,46.84
2023-02-03T04:15:07.187Z,46.98
2023-02-03T04:25:16.798Z,47.01
2023-02-03T04:35:26.340Z,47.00
2023-02-03T04:45:36.148Z,46.99
2023-02-03T04:55:45.759Z,46.99
2023-02-03T05:05:55.468Z,47.04
2023-02-03T05:16:05.164Z,47.09
2023-02-03T05:26:15.136Z,47.12
2023-02-03T05:36:23.721Z,47.18
2023-02-03T05:46:33.203Z,47.16
2023-02-03T05:56:43.005Z,47.32
2023-02-03T06:06:52.835Z,47.55
2023-02-03T06:17:01.552Z,48.21
2023-02-03T06:27:11.635Z,48.32
2023-02-03T06:37:21.904Z,48.92
2023-02-03T06:47:32.812Z,47.94
2023-02-03T06:57:42.640Z,47.90
2023-02-03T07:07:51.642Z,48.28
2023-02-03T07:18:01.255Z,48.23
2023-02-03T07:28:11.090Z,48.99
2023-02-03T07:38:20.525Z,48.97
2023-02-03T07:48:29.096Z,48.63
2023-02-03T07:58:38.367Z,48.23
2023-02-03T08:08:46.799Z,48.10
2023-02-03T08:18:55.925Z,48.00
2023-02-03T08:29:05.160Z,47.99
2023-02-03T08:39:13.009Z,48.12
2023-02-03T08:49:22.736Z,48.12
2023-02-03T08:59:32.299Z,48.21
2023-02-03T09:09:41.498Z,47.82
2023-02-03T09:19:50.971Z,47.69
2023-02-03T09:30:00.793Z,47.65
2023-02-03T09:40:10.678Z,47.57
2023-02-03T09:50:20.698Z,47.51
2023-02-03T10:00:30.421Z,47.38
2023-02-03T10:10:40.458Z,47.49
2023-02-03T10:20:50.292Z,47.37
2023-02-03T10:31:00.025Z,47.19
2023-02-03T10:41:10.177Z,47.16
2023-02-03T10:51:20.140Z,47.82
2023-02-03T11:01:29.732Z,47.53
2023-02-03T11:11:39.585Z,48.41
2023-02-03T11:21:49.287Z,48.76
2023-02-03T11:31:59.065Z,48.45
2023-02-03T11:42:09.571Z,49.30
